createdAt,value
2022-09-17T00:02:21.220Z,99057.18
2022-09-17T00:05:50.678Z,99060.52
2022-09-17T00:09:18.404Z,99057.37
2022-09-17T00:12:47.559Z,99057.52
2022-09-17T00:16:22.518Z,99056.27
2022-09-17T00:19:50.163Z,99054.63
2022-09-17T00:23:17.809Z,99054.08
2022-09-17T00:26:45.937Z,99056.75
2022-09-17T00:30:17.320Z,99062.23
2022-09-17T00:33:44.089Z,99060.23
2022-09-17T00:37:12.408Z,99063.88
2022-09-17T00:40:42.674Z,99064.26
2022-09-17T00:44:39.687Z,99066.39
2022-09-17T00:48:09.604Z,99069.59
2022-09-17T00:51:41.782Z,99066.13
2022-09-17T00:55:18.193Z,99064.58
2022-09-17T00:58:45.204Z,99064.21
2022-09-17T01:02:12.817Z,99059.44
2022-09-17T01:05:47.497Z,99062.90
2022-09-17T01:09:33.109Z,99069.71
2022-09-17T01:13:18.375Z,99066.54
2022-09-17T01:17:02.319Z,99067.71
2022-09-17T01:21:04.460Z,99066.27
2022-09-17T01:24:50.273Z,99067.69
2022-09-17T01:28:40.822Z,99066.52
2022-09-17T01:32:14.551Z,99069.05
2022-09-17T01:35:52.708Z,99069.30
2022-09-17T01:39:30.926Z,99070.48
2022-09-17T01:43:05.938Z,99075.80
2022-09-17T01:46:44.238Z,99077.98
2022-09-17T01:50:47.171Z,99078.50
2022-09-17T01:54:42.676Z,99079.08
2022-09-17T01:58:39.984Z,99083.45
2022-09-17T02:02:49.624Z,99087.02
2022-09-17T02:07:14.450Z,99087.39
2022-09-17T02:11:06.245Z,99087.34
2022-09-17T02:15:03.518Z,99087.98
2022-09-17T02:18:36.038Z,99093.63
2022-09-17T02:22:11.041Z,99089.90
2022-09-17T02:25:44.982Z,99088.86
2022-09-17T02:29:21.162Z,99090.27
2022-09-17T02:32:48.173Z,99095.10
2022-09-17T02:36:15.756Z,99093.98
2022-09-17T02:39:43.994Z,99093.27
2022-09-17T02:43:16.301Z,99094.25
2022-09-17T02:46:59.009Z,99088.77
2022-09-17T02:50:37.507Z,99088.26
2022-09-17T02:54:14.235Z,99087.02
2022-09-17T02:57:49.443Z,99089.73
2022-09-17T03:01:32.698Z,99091.86
2022-09-17T03:05:00.618Z,99091.01
2022-09-17T03:08:44.438Z,99092.73
2022-09-17T03:12:11.890Z,99092.70
2022-09-17T03:15:38.857Z,99088.16
2022-09-17T03:19:06.305Z,99085.23
2022-09-17T03:22:33.334Z,99083.96
2022-09-17T03:26:00.162Z,99085.89
2022-09-17T03:29:27.040Z,99087.02
2022-09-17T03:32:53.915Z,99082.40
2022-09-17T03:36:24.919Z,99088.48
2022-09-17T03:39:51.817Z,99088.48
2022-09-17T03:43:20.571Z,99081.56
2022-09-17T03:46:47.992Z,99072.61
2022-09-17T03:50:15.131Z,99071.11
2022-09-17T03:53:42.594Z,99069.44
2022-09-17T03:57:09.891Z,99072.46
2022-09-17T04:00:38.296Z,99071.15
2022-09-17T04:04:05.810Z,99070.69
2022-09-17T04:07:32.829Z,99073.97
2022-09-17T04:10:59.365Z,99063.67
2022-09-17T04:14:27.343Z,99058.27
2022-09-17T04:17:57.917Z,99065.07
2022-09-17T04:21:24.943Z,99065.75
2022-09-17T04:24:51.675Z,99065.48
2022-09-17T04:28:19.052Z,99068.11
2022-09-17T04:31:46.326Z,99066.95
2022-09-17T04:35:13.494Z,99072.77
2022-09-17T04:38:40.660Z,99081.78
2022-09-17T04:42:07.675Z,99085.82
2022-09-17T04:45:34.869Z,99085.70
2022-09-17T04:49:01.760Z,99093.38
2022-09-17T04:52:30.993Z,99090.54
2022-09-17T04:55:57.820Z,99094.29
2022-09-17T04:59:24.898Z,99095.64
2022-09-17T05:02:53.775Z,99093.78
2022-09-17T05:06:20.571Z,99100.27
2022-09-17T05:09:47.815Z,99099.64
2022-09-17T05:13:14.280Z,99103.42
2022-09-17T05:16:41.096Z,99101.02
2022-09-17T05:20:09.865Z,99098.23
2022-09-17T05:23:36.953Z,99100.67
2022-09-17T05:27:03.710Z,99103.75
2022-09-17T05:30:31.637Z,99101.49
2022-09-17T05:34:00.936Z,99105.09
2022-09-17T05:37:27.724Z,99110.71
2022-09-17T05:40:54.358Z,99115.97
2022-09-17T05:44:21.445Z,99123.62
2022-09-17T05:47:48.542Z,99125.05
2022-09-17T05:51:15.913Z,99126.95
2022-09-17T05:54:45.729Z,99128.73
2022-09-17T05:58:19.621Z,99125.30
2022-09-17T06:01:51.199Z,99120.41
2022-09-17T06:05:18.659Z,99122.90
2022-09-17T06:08:45.933Z,99119.49
2022-09-17T06:12:13.129Z,99119.04
2022-09-17T06:15:40.087Z,99119.60
2022-09-17T06:19:06.916Z,99123.99
2022-09-17T06:22:33.737Z,99128.23
2022-09-17T06:26:01.477Z,99132.11
2022-09-17T06:29:28.086Z,99137.27
2022-09-17T06:32:55.318Z,99143.04
2022-09-17T06:36:22.694Z,99139.29
2022-09-17T06:39:49.197Z,99142.58
2022-09-17T06:43:17.707Z,99144.32
2022-09-17T06:46:44.492Z,99145.04
2022-09-17T06:50:13.682Z,99150.02
2022-09-17T06:53:43.275Z,99151.36
2022-09-17T06:57:10.757Z,99156.63
2022-09-17T07:00:37.844Z,99162.09
2022-09-17T07:04:10.206Z,99158.39
2022-09-17T07:07:39.962Z,99158.14
2022-09-17T07:11:07.103Z,99159.48
2022-09-17T07:14:34.162Z,99165.27
2022-09-17T07:18:02.854Z,99165.33
2022-09-17T07:21:29.928Z,99169.38
2022-09-17T07:24:56.863Z,99169.55
2022-09-17T07:28:24.263Z,99169.38
2022-09-17T07:31:51.507Z,99168.41
2022-09-17T07:35:19.040Z,99174.87
2022-09-17T07:38:46.198Z,99172.41
2022-09-17T07:42:13.416Z,99169.46
2022-09-17T07:45:40.217Z,99168.97
2022-09-17T07:49:07.621Z,99170.86
2022-09-17T07:52:34.172Z,99174.02
2022-09-17T07:56:02.805Z,99177.17
2022-09-17T07:59:30.373Z,99177.89
2022-09-17T08:02:58.327Z,99178.33
2022-09-17T08:06:28.478Z,99175.79
2022-09-17T08:09:56.505Z,99177.48
2022-09-17T08:13:23.311Z,99172.49
2022-09-17T08:16:50.658Z,99174.25
2022-09-17T08:20:19.367Z,99176.23
2022-09-17T08:23:46.926Z,99177.17
2022-09-17T08:27:14.086Z,99179.59
2022-09-17T08:30:40.934Z,99176.63
2022-09-17T08:34:12.749Z,99171.00
2022-09-17T08:37:39.633Z,99174.27
2022-09-17T08:41:22.521Z,99174.54
2022-09-17T08:44:52.078Z,99175.63
2022-09-17T08:48:20.483Z,99172.69
2022-09-17T08:52:00.046Z,99173.23
2022-09-17T08:55:35.384Z,99176.03
2022-09-17T08:59:13.329Z,99183.73
2022-09-17T09:03:00.950Z,99187.89
2022-09-17T09:06:37.905Z,99187.09
2022-09-17T09:10:14.283Z,99187.88
2022-09-17T09:13:47.895Z,99188.98
2022-09-17T09:17:17.349Z,99190.43
2022-09-17T09:20:49.747Z,99190.36
2022-09-17T09:24:26.358Z,99196.80
2022-09-17T09:28:19.271Z,99199.27
2022-09-17T09:31:58.221Z,99200.85
2022-09-17T09:35:28.779Z,99199.61
2022-09-17T09:39:02.025Z,99201.61
2022-09-17T09:42:34.073Z,99200.79
2022-09-17T09:46:21.574Z,99203.60
2022-09-17T09:50:10.425Z,99209.61
2022-09-17T09:53:47.701Z,99213.61
2022-09-17T09:57:18.053Z,99217.50
2022-09-17T10:00:46.082Z,99217.80
2022-09-17T10:04:20.554Z,99215.22
2022-09-17T10:07:49.096Z,99218.19
2022-09-17T10:11:27.008Z,99222.73
2022-09-17T10:14:54.825Z,99220.63
2022-09-17T10:18:26.149Z,99224.49
2022-09-17T10:21:53.859Z,99226.55
2022-09-17T10:25:30.153Z,99228.75
2022-09-17T10:28:59.801Z,99224.86
2022-09-17T10:32:27.259Z,99231.23
2022-09-17T10:36:04.702Z,99231.86
2022-09-17T10:39:44.556Z,99233.20
2022-09-17T10:43:25.263Z,99240.67
2022-09-17T10:46:52.543Z,99247.36
2022-09-17T10:50:23.070Z,99248.48
2022-09-17T10:54:24.990Z,99248.62
2022-09-17T10:58:15.101Z,99245.06
2022-09-17T11:02:07.362Z,99240.18
2022-09-17T11:05:53.859Z,99235.30
2022-09-17T11:09:31.608Z,99237.77
2022-09-17T11:13:18.700Z,99237.86
2022-09-17T11:16:57.721Z,99240.27
2022-09-17T11:20:44.584Z,99236.70
2022-09-17T11:24:38.730Z,99233.60
2022-09-17T11:28:11.542Z,99231.58
2022-09-17T11:31:48.715Z,99231.92
2022-09-17T11:35:20.987Z,99225.48
2022-09-17T11:38:51.726Z,99228.90
2022-09-17T11:42:23.627Z,99220.04
2022-09-17T11:45:58.225Z,99217.44
2022-09-17T11:49:35.615Z,99212.13
2022-09-17T11:53:12.311Z,99200.10
2022-09-17T11:56:46.056Z,99193.56
2022-09-17T12:00:20.724Z,99188.16
2022-09-17T12:03:54.470Z,99184.70
2022-09-17T12:07:36.607Z,99183.67
2022-09-17T12:11:12.764Z,99176.05
2022-09-17T12:15:05.493Z,99176.65
2022-09-17T12:18:42.214Z,99175.50
2022-09-17T12:22:15.439Z,99172.08
2022-09-17T12:25:48.273Z,99163.27
2022-09-17T12:33:54.759Z,99160.42
2022-09-17T12:37:33.424Z,99167.54
2022-09-17T12:41:08.568Z,99168.23
2022-09-17T12:45:09.181Z,99180.88
2022-09-17T12:48:57.712Z,99194.27
2022-09-17T12:52:39.489Z,99193.27
2022-09-17T12:56:14.965Z,99190.61
2022-09-17T12:59:49.899Z,99181.88
2022-09-17T13:03:26.680Z,99176.46
2022-09-17T13:07:31.149Z,99188.89
2022-09-17T13:11:27.805Z,99201.41
2022-09-17T13:15:23.016Z,99192.20
2022-09-17T13:19:17.290Z,99185.24
2022-09-17T13:22:50.978Z,99189.33
2022-09-17T13:26:21.928Z,99194.23
2022-09-17T13:30:06.785Z,99197.70
2022-09-17T13:33:54.571Z,99205.30
2022-09-17T13:37:24.723Z,99218.00
2022-09-17T13:40:53.297Z,99218.46
2022-09-17T13:44:25.402Z,99221.73
2022-09-17T13:47:56.379Z,99221.44
2022-09-17T13:51:53.532Z,99218.32
2022-09-17T13:55:40.178Z,99214.55
2022-09-17T13:59:12.627Z,99214.38
2022-09-17T14:02:41.088Z,99209.66
2022-09-17T14:06:38.394Z,99206.02
2022-09-17T14:10:42.527Z,99206.58
2022-09-17T14:14:50.299Z,99206.50
2022-09-17T14:18:44.013Z,99205.77
2022-09-17T14:22:17.025Z,99209.16
2022-09-17T14:25:51.107Z,99207.60
2022-09-17T14:29:37.025Z,99204.02
2022-09-17T14:33:15.125Z,99204.07
2022-09-17T14:36:44.525Z,99197.27
2022-09-17T14:40:18.464Z,99200.90
2022-09-17T14:43:51.592Z,99200.52
2022-09-17T14:47:22.193Z,99197.02
2022-09-17T14:50:50.354Z,99199.03
2022-09-17T14:54:33.653Z,99202.66
2022-09-17T14:58:06.267Z,99204.69
2022-09-17T15:01:35.365Z,99199.59
2022-09-17T15:05:04.582Z,99193.50
2022-09-17T15:08:33.247Z,99184.83
2022-09-17T15:12:06.361Z,99185.30
2022-09-17T15:15:34.745Z,99189.27
2022-09-17T15:19:03.847Z,99186.97
2022-09-17T15:22:33.837Z,99184.32
2022-09-17T15:26:07.507Z,99189.92
2022-09-17T15:29:38.421Z,99193.08
2022-09-17T15:33:05.388Z,99190.19
2022-09-17T15:36:35.055Z,99188.23
2022-09-17T15:40:13.509Z,99188.46
2022-09-17T15:43:44.317Z,99185.59
2022-09-17T15:47:50.995Z,99196.04
2022-09-17T15:51:27.824Z,99197.12
2022-09-17T15:54:56.200Z,99201.55
2022-09-17T15:58:28.799Z,99201.48
2022-09-17T16:01:58.353Z,99199.64
2022-09-17T16:05:55.685Z,99200.83
2022-09-17T16:09:50.306Z,99196.12
2022-09-17T16:13:17.080Z,99196.88
2022-09-17T16:16:44.685Z,99198.31
2022-09-17T16:20:17.918Z,99202.36
2022-09-17T16:23:46.504Z,99210.31
2022-09-17T16:27:21.143Z,99217.26
2022-09-17T16:30:50.495Z,99218.35
2022-09-17T16:34:20.028Z,99221.52
2022-09-17T16:37:49.354Z,99224.86
2022-09-17T16:41:16.304Z,99231.18
2022-09-17T16:44:44.055Z,99236.48
2022-09-17T16:48:11.236Z,99236.23
2022-09-17T16:51:38.715Z,99239.98
2022-09-17T16:55:07.063Z,99238.59
2022-09-17T16:58:34.778Z,99238.09
2022-09-17T17:02:02.919Z,99239.16
2022-09-17T17:05:30.698Z,99236.78
2022-09-17T17:09:01.033Z,99239.90
2022-09-17T17:12:28.320Z,99243.92
2022-09-17T17:15:57.854Z,99246.21
2022-09-17T17:19:25.571Z,99260.18
2022-09-17T17:22:55.303Z,99272.23
2022-09-17T17:26:22.418Z,99275.68
2022-09-17T17:29:50.345Z,99279.28
2022-09-17T17:33:18.159Z,99272.90
2022-09-17T17:36:46.410Z,99269.02
2022-09-17T17:40:15.123Z,99267.67
2022-09-17T17:43:42.554Z,99271.55
2022-09-17T17:47:10.059Z,99274.41
2022-09-17T17:50:37.356Z,99280.84
2022-09-17T17:54:05.239Z,99288.89
2022-09-17T17:57:32.562Z,99288.45
2022-09-17T18:01:00.006Z,99283.77
2022-09-17T18:04:28.147Z,99283.21
2022-09-17T18:07:56.937Z,99284.09
2022-09-17T18:11:24.805Z,99281.29
2022-09-17T18:14:58.228Z,99283.38
2022-09-17T18:18:26.376Z,99286.19
2022-09-17T18:21:55.762Z,99285.83
2022-09-17T18:25:23.130Z,99284.14
2022-09-17T18:28:50.282Z,99278.13
2022-09-17T18:32:18.817Z,99271.63
2022-09-17T18:35:46.035Z,99273.14
2022-09-17T18:39:53.256Z,99279.84
2022-09-17T18:43:03.634Z,99283.16
2022-09-17T18:46:32.147Z,99282.28
2022-09-17T18:49:58.771Z,99282.86
2022-09-17T18:53:25.880Z,99285.11
2022-09-17T18:56:52.758Z,99284.42
2022-09-17T19:00:20.795Z,99286.59
2022-09-17T19:03:50.842Z,99287.58
2022-09-17T19:07:20.806Z,99285.68
2022-09-17T19:10:57.029Z,99283.41
2022-09-17T19:14:25.900Z,99289.28
2022-09-17T19:17:54.906Z,99292.79
2022-09-17T19:21:23.596Z,99293.35
2022-09-17T19:24:51.650Z,99292.04
2022-09-17T19:28:20.772Z,99294.34
2022-09-17T19:31:48.146Z,99287.71
2022-09-17T19:35:23.422Z,99282.63
2022-09-17T19:38:53.029Z,99281.58
2022-09-17T19:42:33.250Z,99283.98
2022-09-17T19:46:06.975Z,99286.14
2022-09-17T19:49:36.622Z,99285.55
2022-09-17T19:53:08.110Z,99287.85
2022-09-17T19:56:43.590Z,99289.67
2022-09-17T20:00:16.528Z,99293.71
2022-09-17T20:03:45.269Z,99294.31
2022-09-17T20:07:14.189Z,99294.27
2022-09-17T20:10:42.588Z,99286.59
2022-09-17T20:14:10.358Z,99285.36
2022-09-17T20:17:39.519Z,99281.64
2022-09-17T20:21:12.984Z,99280.74
2022-09-17T20:24:47.653Z,99279.14
2022-09-17T20:28:17.494Z,99276.81
2022-09-17T20:31:47.480Z,99278.84
2022-09-17T20:35:14.382Z,99277.38
2022-09-17T20:39:11.546Z,99277.49
2022-09-17T20:42:30.519Z,99283.58
2022-09-17T20:45:59.439Z,99286.75
2022-09-17T20:49:29.855Z,99286.20
2022-09-17T20:53:01.113Z,99282.20
2022-09-17T20:56:34.679Z,99286.46
2022-09-17T21:00:18.353Z,99286.29
2022-09-17T21:03:50.964Z,99288.23
2022-09-17T21:07:19.778Z,99290.77
2022-09-17T21:10:49.441Z,99291.98
2022-09-17T21:14:19.679Z,99297.13
2022-09-17T21:17:48.583Z,99301.24
2022-09-17T21:21:20.038Z,99304.11
2022-09-17T21:24:50.384Z,99298.69
2022-09-17T21:28:26.495Z,99298.37
2022-09-17T21:31:54.593Z,99297.38
2022-09-17T21:35:30.364Z,99290.37
2022-09-17T21:39:00.878Z,99292.48
2022-09-17T21:42:28.172Z,99289.50
2022-09-17T21:46:12.573Z,99290.95
2022-09-17T21:49:37.650Z,99291.13
2022-09-17T21:53:04.658Z,99291.36
2022-09-17T21:56:35.564Z,99295.65
2022-09-17T22:00:03.768Z,99297.67
2022-09-17T22:03:32.168Z,99295.94
2022-09-17T22:07:01.155Z,99295.25
2022-09-17T22:10:29.538Z,99288.81
2022-09-17T22:13:59.100Z,99296.40
2022-09-17T22:17:26.322Z,99297.48
2022-09-17T22:20:55.897Z,99296.77
2022-09-17T22:24:24.023Z,99292.11
2022-09-17T22:28:16.776Z,99291.09
2022-09-17T22:31:41.967Z,99286.06
2022-09-17T22:35:11.443Z,99286.59
2022-09-17T22:38:40.297Z,99288.04
2022-09-17T22:42:08.578Z,99283.02
2022-09-17T22:45:40.977Z,99282.27
2022-09-17T22:49:08.981Z,99279.34
2022-09-17T22:52:35.943Z,99275.70
2022-09-17T22:56:03.688Z,99270.05
2022-09-17T22:59:30.510Z,99265.50
2022-09-17T23:02:58.725Z,99265.09
2022-09-17T23:06:29.524Z,99266.76
2022-09-17T23:09:57.046Z,99264.54
2022-09-17T23:13:27.629Z,99262.13
2022-09-17T23:16:54.725Z,99258.67
2022-09-17T23:20:22.156Z,99259.54
2022-09-17T23:23:53.766Z,99259.13
2022-09-17T23:27:20.887Z,99261.42
2022-09-17T23:30:48.364Z,99265.64
2022-09-17T23:34:16.095Z,99270.30
2022-09-17T23:37:45.050Z,99266.82
2022-09-17T23:41:14.982Z,99268.23
2022-09-17T23:44:42.068Z,99265.84
2022-09-17T23:48:09.054Z,99259.74
2022-09-17T23:51:38.138Z,99258.24
2022-09-17T23:55:04.931Z,99251.88
2022-09-17T23:58:34.613Z,99251.47
